Latest Weather Observations for Emerald

IDQ60801

Issued at 4:02 pm EST Sunday 15 September 2019 (issued every 10 minutes, with the page automatically refreshed every 10 minutes)

About weather observations | Map of weather stations | Latest weather observations for QLD | Other Formats
Station Details ID: 035264 Name: EMERALD AIRPORT Lat: -23.57 Lon: 148.18 Height: 189.4 m
Data from the previous 72 hours. | See also: Recent months at Emerald
Date/Time
EST
Temp
°C
App
Temp
°C
Dew
Point
°C
Rel
Hum
%
Delta-T
°C
Wind Press
QNH
hPa
Press
MSL
hPa
Rain since
9am
mm
Dir  Spd
km/h
Gust
km/h
Spd
kts
Gust
kts
15/04:00pm 31.0 25.3 -4.1 10 15.8 ENE 17 26 9 14 1018.9 1018.3 0.0
15/03:30pm 30.9 25.5 -4.2 10 15.8 N 15 24 8 13 1018.9 1018.3 0.0
15/03:00pm 30.5 25.6 -3.3 11 15.4 NE 13 24 7 13 1019.0 1018.4 0.0
15/02:30pm 31.1 26.1 -4.1 10 15.9 NE 13 24 7 13 1019.2 1018.6 0.0
15/02:00pm 30.5 25.6 -3.3 11 15.4 NE 13 19 7 10 1019.5 1018.9 0.0
15/01:30pm 30.1 24.4 -3.6 11 15.3 NE 17 28 9 15 1020.2 1019.5 0.0
15/01:00pm 30.3 25.2 -2.2 12 15.1 ENE 15 24 8 13 1020.8 1020.1 0.0
15/12:30pm 29.2 24.0 -3.1 12 14.7 ENE 15 22 8 12 1021.5 1020.8 0.0
15/12:00pm 29.7 24.9 -2.7 12 14.8 ENE 13 22 7 12 1021.9 1021.2 0.0
15/11:30am 29.0 24.8 -1.2 14 14.1 ENE 11 28 6 15 1022.1 1021.4 0.0
15/11:00am 27.6 23.5 -0.5 16 13.1 ENE 11 19 6 10 1022.6 1021.9 0.0
15/10:30am 26.6 23.1 1.1 19 12.2 ENE 9 13 5 7 1023.1 1022.4 0.0
15/10:00am 25.2 22.1 1.3 21 11.3 E 7 15 4 8 1023.8 1023.2 0.0
15/09:30am 24.1 21.0 1.1 22 10.8 ENE 7 11 4 6 1024.0 1023.4 0.0
15/09:00am 23.0 19.8 0.8 23 10.3 ESE 7 11 4 6 1023.9 1023.3 0.0
15/08:30am 21.3 17.7 0.5 25 9.5 ENE 9 13 5 7 1024.1 1023.5 0.0
15/08:00am 19.3 15.8 -1.7 24 9.0 SE 7 11 4 6 1024.0 1023.4 0.0
15/07:30am 16.9 13.0 -4.3 23 8.4 SSE 7 9 4 5 1023.5 1022.9 0.0
15/07:00am 13.5 9.2 -5.1 27 6.9 SSW 9 11 5 6 1023.3 1022.7 0.0
15/06:30am 10.6 7.0 -2.1 41 4.9 WSW 7 9 4 5 1022.5 1021.8 0.0
15/06:00am 11.8 8.8 -5.2 30 6.2 SW 2 6 1 3 1021.9 1021.2 0.0
15/05:30am 12.5 8.6 -7.0 25 6.9 WSW 6 7 3 4 1021.6 1020.9 0.0
15/05:00am 12.5 8.4 -6.5 26 6.8 S 7 9 4 5 1021.2 1020.5 0.0
15/04:30am 13.0 8.9 -6.5 25 7.1 SSE 7 9 4 5 1020.9 1020.2 0.0
15/04:00am 13.0 8.2 -6.0 26 6.9 SSE 11 13 6 7 1020.5 1019.8 0.0
15/03:30am 12.7 8.4 -5.3 28 6.7 SE 9 11 5 6 1020.4 1019.7 0.0
15/03:00am 13.8 10.0 -5.3 26 7.1 SSE 6 9 3 5 1020.3 1019.6 0.0
15/02:30am 13.7 9.4 -4.5 28 6.9 SE 9 13 5 7 1020.2 1019.5 0.0
15/02:00am 13.9 9.8 -3.4 30 6.8 E 9 13 5 7 1020.3 1019.6 0.0
15/01:30am 14.8 9.4 -4.5 26 7.5 ESE 15 17 8 9 1020.6 1019.9 0.0
15/01:00am 15.8 10.6 -6.5 21 8.3 SE 13 15 7 8 1020.8 1020.1 0.0
15/12:30am 15.8 10.2 -6.5 21 8.3 SSE 15 17 8 9 1020.9 1020.2 0.0
15/12:00am 13.1 8.1 -4.5 29 6.6 SE 13 15 7 8 1020.8 1020.1 0.0
 
Date/Time
EST
Temp
°C
App
Temp
°C
Dew
Point
°C
Rel
Hum
%
Delta-T
°C
Wind Press
QNH
hPa
Press
MSL
hPa
Rain since
9am
mm
Dir  Spd
km/h
Gust
km/h
Spd
kts
Gust
kts
14/11:30pm 15.6 11.9 -3.3 27 7.6 SW 7 9 4 5 1020.7 1020.0 0.0
14/11:00pm 16.1 13.6 -4.4 24 8.0 CALM 0 4 0 2 1020.8 1020.1 0.0
14/10:30pm 16.7 12.6 -7.0 19 8.9 SSW 7 9 4 5 1020.8 1020.1 0.0
14/10:00pm 16.7 12.6 -6.3 20 8.7 S 7 9 4 5 1020.7 1020.0 0.0
14/09:30pm 15.8 11.9 -4.2 25 7.9 ESE 7 11 4 6 1020.9 1020.2 0.0
14/09:00pm 18.6 16.0 -4.8 20 9.3 CALM 0 0 0 0 1020.8 1020.1 0.0
14/08:30pm 19.4 16.7 -5.5 18 9.9 CALM 0 0 0 0 1020.8 1020.1 0.0
14/08:00pm 20.5 17.8 -6.1 16 10.5 CALM 0 0 0 0 1020.5 1019.8 0.0
14/07:30pm 22.1 19.3 -6.6 14 11.5 CALM 0 0 0 0 1020.3 1019.6 0.0
14/07:00pm 23.8 21.0 -7.3 12 12.4 CALM 0 0 0 0 1020.0 1019.3 0.0
14/06:30pm 25.6 21.5 -8.2 10 13.5 SE 6 6 3 3 1019.8 1019.1 0.0
14/06:00pm 27.7 23.0 -9.5 8 14.8 SSE 9 9 5 5 1019.5 1018.9 0.0
14/05:30pm 29.3 25.1 -10.0 7 15.8 SSE 6 11 3 6 1019.3 1018.7 0.0
14/05:00pm 30.4 26.3 -9.2 7 16.3 SSW 6 9 3 5 1019.1 1018.5 0.0
14/04:30pm 30.2 25.5 -9.4 7 16.2 ESE 9 15 5 8 1019.0 1018.4 0.0
14/04:00pm 30.3 25.4 -7.6 8 16.0 E 11 17 6 9 1019.0 1018.4 0.0
14/03:30pm 30.7 26.2 -7.3 8 16.2 ENE 9 20 5 11 1018.9 1018.3 0.0
14/03:00pm 30.7 27.0 -4.4 10 15.7 NNW 6 13 3 7 1019.1 1018.5 0.0
14/02:30pm 30.0 25.7 -4.9 10 15.4 SSW 9 22 5 12 1019.5 1018.9 0.0
14/02:00pm 29.8 25.1 -5.1 10 15.3 SE 11 17 6 9 1019.9 1019.2 0.0
14/01:30pm 29.4 24.7 -5.4 10 15.2 NE 11 24 6 13 1020.3 1019.6 0.0
14/01:00pm 29.2 24.1 -5.5 10 15.0 E 13 24 7 13 1020.9 1020.2 0.0
14/12:30pm 28.9 24.1 -5.7 10 15.0 SSE 11 20 6 11 1021.4 1020.7 0.0
14/12:00pm 29.0 24.2 -5.7 10 15.0 E 11 20 6 11 1021.9 1021.2 0.0
14/11:30am 27.6 22.4 -6.7 10 14.4 SE 13 24 7 13 1022.4 1021.7 0.0
14/11:00am 27.2 21.7 -5.8 11 14.0 E 15 24 8 13 1022.8 1022.1 0.0
14/10:30am 26.5 21.4 -5.2 12 13.5 NE 13 20 7 11 1023.0 1022.3 0.0
14/10:00am 25.7 20.9 -5.8 12 13.2 ESE 11 17 6 9 1023.3 1022.7 0.0
14/09:30am 24.7 19.5 -6.6 12 12.8 SE 13 20 7 11 1023.4 1022.8 0.0
14/09:00am 23.3 17.8 -5.7 14 11.9 SSE 15 20 8 11 1023.5 1022.9 0.0
14/08:30am 22.5 16.9 -6.3 14 11.6 SSE 15 17 8 9 1023.4 1022.8 0.0
14/08:00am 20.2 15.1 -5.6 17 10.3 S 13 19 7 10 1023.2 1022.5 0.0
14/07:30am 17.6 12.9 -5.0 21 8.9 S 11 15 6 8 1022.9 1022.2 0.0
14/07:00am 13.5 9.3 -3.7 30 6.6 SW 9 11 5 6 1022.6 1021.9 0.0
14/06:34am 11.4 7.6 -3.5 35 5.7 SW 7 9 4 5 1022.3 1021.6 0.0
14/06:30am 11.3 7.8 -3.2 36 5.5 SSW 6 7 3 4 1022.3 1021.6 0.0
14/06:10am 11.4 9.2 -1.7 40 5.2 CALM 0 0 0 0 1022.1 1021.4 0.0
14/06:00am 11.1 8.6 -4.1 34 5.7 CALM 0 4 0 2 1022.1 1021.4 0.0
14/05:30am 12.2 9.6 -4.8 30 6.3 CALM 0 0 0 0 1021.8 1021.1 0.0
14/05:00am 13.2 9.2 -5.4 27 6.9 E 7 7 4 4 1021.5 1020.8 0.0
14/04:30am 13.8 9.1 -5.3 26 7.2 SE 11 13 6 7 1021.2 1020.5 0.0
14/04:00am 14.2 10.3 -5.0 26 7.3 SE 7 11 4 6 1021.0 1020.3 0.0
14/03:30am 13.9 9.6 -4.8 27 7.1 SSE 9 13 5 7 1021.0 1020.3 0.0
14/03:00am 14.2 9.5 -5.0 26 7.3 SSE 11 13 6 7 1021.0 1020.3 0.0
14/02:30am 15.1 10.9 -4.2 26 7.5 SSE 9 11 5 6 1021.0 1020.3 0.0
14/02:00am 14.7 10.5 -4.1 27 7.3 S 9 11 5 6 1021.1 1020.4 0.0
14/01:30am 15.0 11.3 -3.3 28 7.3 S 7 11 4 6 1021.2 1020.5 0.0
14/01:00am 15.5 10.3 -2.4 29 7.3 SE 15 22 8 12 1021.1 1020.4 0.0
14/12:30am 14.6 10.4 -0.7 35 6.4 SSW 11 13 6 7 1021.1 1020.4 0.0
14/12:00am 13.5 9.7 -0.9 37 5.9 SSE 9 11 5 6 1021.4 1020.7 0.0
 
Date/Time
EST
Temp
°C
App
Temp
°C
Dew
Point
°C
Rel
Hum
%
Delta-T
°C
Wind Press
QNH
hPa
Press
MSL
hPa
Rain since
9am
mm
Dir  Spd
km/h
Gust
km/h
Spd
kts
Gust
kts
13/11:30pm 14.9 13.0 0.7 38 6.1 CALM 0 0 0 0 1021.2 1020.5 0.0
13/11:00pm 15.4 13.5 0.4 36 6.5 CALM 0 0 0 0 1021.2 1020.5 0.0
13/10:30pm 15.9 13.5 -0.3 33 6.9 WSW 2 7 1 4 1021.3 1020.6 0.0
13/10:00pm 18.1 14.8 -0.2 29 8.0 W 7 9 4 5 1021.1 1020.4 0.0
13/09:30pm 19.2 15.9 -0.2 27 8.6 W 7 9 4 5 1021.2 1020.5 0.0
13/09:00pm 19.6 16.9 -2.1 23 9.2 SE 2 6 1 3 1021.1 1020.4 0.0
13/08:30pm 20.1 16.7 -2.3 22 9.5 SE 6 7 3 4 1021.0 1020.3 0.0
13/08:00pm 20.8 17.4 -1.7 22 9.7 E 6 6 3 3 1020.8 1020.1 0.0
13/07:30pm 21.9 18.4 -2.7 19 10.6 NNE 6 7 3 4 1020.6 1019.9 0.0
13/07:00pm 24.5 22.1 -2.9 16 12.0 CALM 0 2 0 1 1020.4 1019.7 0.0
13/06:30pm 24.4 20.3 -3.0 16 12.0 ESE 9 9 5 5 1020.1 1019.4 0.0
13/06:00pm 26.3 21.4 -3.3 14 13.0 SE 13 15 7 8 1019.8 1019.1 0.0
13/05:30pm 28.2 23.2 -3.9 12 14.2 SSE 13 17 7 9 1019.5 1018.9 0.0
13/05:00pm 29.2 24.0 -3.1 12 14.6 SSE 15 24 8 13 1019.3 1018.7 0.0
13/04:30pm 29.7 24.1 -2.7 12 14.9 SE 17 24 9 13 1019.1 1018.5 0.0
13/04:00pm 29.5 25.2 -1.8 13 14.5 SSE 11 24 6 13 1019.1 1018.5 0.0
13/03:30pm 30.2 25.2 -1.2 13 14.8 SE 15 20 8 11 1019.2 1018.6 0.0
13/03:00pm 29.6 24.4 0.2 15 14.1 E 17 24 9 13 1019.2 1018.6 0.0
13/02:30pm 29.4 25.9 1.0 16 13.9 ESE 9 15 5 8 1019.5 1018.9 0.0
13/02:00pm 28.8 24.4 0.5 16 13.6 SW 13 20 7 11 1020.2 1019.5 0.0
13/01:30pm 28.0 23.3 0.7 17 13.1 SE 15 22 8 12 1020.8 1020.1 0.0
13/01:00pm 27.5 24.1 1.8 19 12.5 SSW 9 19 5 10 1021.2 1020.5 0.0
13/12:30pm 27.4 22.6 2.5 20 12.3 S 17 24 9 13 1021.8 1021.1 0.0
13/12:00pm 26.9 22.8 2.1 20 12.1 S 13 20 7 11 1022.4 1021.7 0.0
13/11:30am 26.1 23.1 4.0 24 11.1 SW 9 17 5 9 1023.1 1022.4 0.0
13/11:00am 24.7 21.5 5.0 28 10.0 WNW 11 20 6 11 1023.6 1023.0 0.0
13/10:30am 24.4 21.8 6.2 31 9.4 N 9 17 5 9 1024.1 1023.5 0.0
13/10:00am 22.9 20.1 7.1 36 8.2 NNW 11 17 6 9 1024.4 1023.8 0.0
13/09:30am 21.6 19.2 8.5 43 7.0 NNW 11 13 6 7 1024.6 1024.0 0.0
13/09:00am 19.9 17.9 8.6 48 5.9 NW 9 13 5 7 1024.7 1024.1 0.0
13/08:30am 18.8 17.2 8.7 52 5.3 NNW 7 11 4 6 1024.7 1024.1 0.0
13/08:00am 16.8 15.7 8.5 58 4.3 NNW 4 9 2 5 1024.7 1024.1 0.0
13/07:30am 14.6 14.0 7.4 62 3.6 CALM 0 0 0 0 1024.4 1023.8 0.0
13/07:00am 12.3 11.7 7.2 71 2.5 CALM 0 0 0 0 1024.0 1023.4 0.0
13/06:30am 10.0 8.1 5.0 71 2.3 ESE 4 6 2 3 1023.7 1023.1 0.0
13/06:00am 9.6 6.8 5.0 73 2.1 ESE 9 9 5 5 1023.4 1022.8 0.0
13/05:30am 9.9 7.7 5.1 72 2.2 ESE 6 9 3 5 1023.2 1022.5 0.0
13/05:00am 10.6 9.3 3.9 63 3.0 CALM 0 0 0 0 1023.1 1022.4 0.0
13/04:30am 10.4 7.8 3.4 62 3.1 SE 6 7 3 4 1023.0 1022.3 0.0
13/04:00am 10.5 7.9 4.2 65 2.8 ESE 7 11 4 6 1022.7 1022.0 0.0
13/03:30am 11.2 10.0 4.4 63 3.1 CALM 0 7 0 4 1022.3 1021.6 0.0
13/03:00am 11.7 10.3 3.5 57 3.7 CALM 0 0 0 0 1022.4 1021.7 0.0
13/02:30am 12.6 11.2 3.6 54 4.1 CALM 0 0 0 0 1022.5 1021.8 0.0
13/02:00am 12.9 10.4 3.8 54 4.1 ENE 6 7 3 4 1022.8 1022.1 0.0
13/01:30am 13.3 10.3 4.2 54 4.2 NNE 9 13 5 7 1023.1 1022.4 0.0
13/01:00am 12.4 9.5 2.8 52 4.2 NE 7 9 4 5 1023.3 1022.7 0.0
13/12:30am 13.7 11.0 2.9 48 4.9 NNE 6 11 3 6 1023.5 1022.9 0.0
13/12:00am 15.2 12.1 3.4 45 5.4 WSW 9 9 5 5 1023.6 1023.0 0.0
 
Date/Time
EST
Temp
°C
App
Temp
°C
Dew
Point
°C
Rel
Hum
%
Delta-T
°C
Wind Press
QNH
hPa
Press
MSL
hPa
Rain since
9am
mm
Dir  Spd
km/h
Gust
km/h
Spd
kts
Gust
kts
12/11:30pm 16.1 13.3 2.9 41 6.0 W 7 9 4 5 1023.8 1023.2 0.0
12/11:00pm 16.6 14.3 2.6 39 6.4 NNE 4 7 2 4 1023.8 1023.2 0.0
12/10:30pm 16.9 13.3 2.9 39 6.5 ENE 11 13 6 7 1023.9 1023.3 0.0
12/10:00pm 16.6 12.4 1.9 37 6.6 ESE 13 15 7 8 1024.0 1023.4 0.0
12/09:30pm 16.4 12.3 2.4 39 6.4 E 13 17 7 9 1024.0 1023.4 0.0
12/09:00pm 18.9 15.2 2.3 33 7.6 SSE 11 13 6 7 1023.8 1023.2 0.0
12/08:30pm 19.4 15.6 1.9 31 8.1 S 11 13 6 7 1023.7 1023.1 0.0
12/08:00pm 19.4 15.9 1.4 30 8.2 SSE 9 11 5 6 1023.5 1022.9 0.0
12/07:30pm 20.2 16.7 1.1 28 8.7 S 9 11 5 6 1023.3 1022.7 0.0
12/07:00pm 21.2 17.7 1.0 26 9.2 S 9 9 5 5 1023.0 1022.3 0.0
12/06:30pm 22.8 19.4 1.8 25 9.9 S 9 9 5 5 1022.9 1022.2 0.0
12/06:00pm 23.5 20.0 1.2 23 10.4 S 9 13 5 7 1022.6 1021.9 0.0
12/05:30pm 25.1 20.8 1.3 21 11.3 S 13 19 7 10 1022.4 1021.7 0.0
12/05:00pm 25.9 23.0 2.6 22 11.4 S 7 11 4 6 1022.2 1021.5 0.0
12/04:30pm 25.6 21.9 2.3 22 11.3 S 11 19 6 10 1022.2 1021.5 0.0

Other formats

Comma delimited format used in spreadsheet applications
http://www.bom.gov.au/fwo/IDQ60801/IDQ60801.94363.axf

JavaScript Object Notation format (JSON) in row-major order
http://www.bom.gov.au/fwo/IDQ60801/IDQ60801.94363.json

Data quality

Most of these data are generated automatically and are frequently updated. Quality checks on data are not normally performed. It is possible for incorrect values to appear. Refer to information at About Latest Weather Observations and please check the disclaimer before using these data.